Time;durP1;ratioP1;P1;durP2;ratioP2;P2;SDS_P1;SDS_P2;PMS_P1;PMS_P2;Temp;Humidity;BMP_temperature;BMP_pressure;BME280_temperature;BME280_humidity;BME280_pressure;Samples;Min_cycle;Max_cycle;Signal;HPM_P1;HPM_P2
2023/08/16 00:02:16;;;;;;;7.65;2.70;;;17.50;99.90;;;;;;5042501;28;20536;-78
2023/08/16 00:04:42;;;;;;;5.35;2.20;;;17.50;99.90;;;;;;5056036;28;20057;-78
2023/08/16 00:07:08;;;;;;;6.50;2.53;;;17.40;99.90;;;;;;5041470;28;20041;-78
2023/08/16 00:09:33;;;;;;;6.45;2.15;;;17.30;99.90;;;;;;5046962;28;20040;-78
2023/08/16 00:11:59;;;;;;;6.57;2.60;;;17.30;99.90;;;;;;5056495;28;20053;-78
2023/08/16 00:14:25;;;;;;;4.45;2.17;;;17.30;99.90;;;;;;5041805;28;20049;-78
2023/08/16 00:16:51;;;;;;;2.88;2.00;;;17.20;99.90;;;;;;5049043;28;20053;-78
2023/08/16 00:19:17;;;;;;;4.28;2.33;;;17.20;99.90;;;;;;5047403;28;20090;-78
2023/08/16 00:21:43;;;;;;;5.55;2.40;;;17.20;99.90;;;;;;5046076;28;20053;-78
2023/08/16 00:24:09;;;;;;;8.98;2.63;;;17.10;99.90;;;;;;5039066;28;20076;-78
2023/08/16 00:26:35;;;;;;;4.13;2.33;;;17.10;99.90;;;;;;5045628;28;20045;-78
2023/08/16 00:29:02;;;;;;;8.07;2.63;;;17.10;99.90;;;;;;5043255;28;20438;-78
2023/08/16 00:31:28;;;;;;;4.13;2.95;;;17.00;99.90;;;;;;5044224;28;20045;-78
2023/08/16 00:33:53;;;;;;;5.60;2.72;;;17.00;99.90;;;;;;5043443;28;20040;-78
2023/08/16 00:36:19;;;;;;;4.32;2.20;;;16.90;99.90;;;;;;5045147;28;20049;-78
2023/08/16 00:38:45;;;;;;;4.28;2.15;;;16.80;99.90;;;;;;5043986;28;20107;-78
2023/08/16 00:41:12;;;;;;;4.75;2.30;;;16.70;99.90;;;;;;5046728;28;20049;-78
2023/08/16 00:43:38;;;;;;;4.85;2.30;;;16.70;99.90;;;;;;5043634;28;20072;-78
2023/08/16 00:46:07;;;;;;;3.07;2.20;;;16.60;99.90;;;;;;5040923;28;20037;-78
2023/08/16 00:48:35;;;;;;;4.75;2.58;;;16.60;99.90;;;;;;5043387;28;20119;-78
2023/08/16 00:51:01;;;;;;;6.50;2.70;;;16.50;99.90;;;;;;5033960;28;20091;-78
2023/08/16 00:53:30;;;;;;;4.57;2.90;;;16.50;99.90;;;;;;5036316;28;20033;-78
2023/08/16 00:55:57;;;;;;;7.60;2.83;;;16.50;99.90;;;;;;5045605;28;20033;-78
2023/08/16 00:58:23;;;;;;;6.68;2.95;;;16.50;99.90;;;;;;5032819;28;20061;-78
2023/08/16 01:00:49;;;;;;;5.45;3.20;;;16.50;99.90;;;;;;5034231;28;20067;-77
2023/08/16 01:03:14;;;;;;;4.50;3.00;;;16.50;99.90;;;;;;5041655;28;20060;-78
2023/08/16 01:05:40;;;;;;;6.13;3.25;;;16.50;99.90;;;;;;5036931;28;20122;-77
2023/08/16 01:08:07;;;;;;;5.55;3.15;;;16.50;99.90;;;;;;5043499;28;20493;-77
2023/08/16 01:11:03;;;;;;;5.93;3.30;;;16.50;99.90;;;;;;5036124;28;20037;-77
2023/08/16 01:13:41;;;;;;;5.30;3.20;;;16.50;99.90;;;;;;5041440;28;20152;-77
2023/08/16 01:16:09;;;;;;;5.90;3.20;;;16.40;99.90;;;;;;5044838;28;20060;-78
2023/08/16 01:18:37;;;;;;;5.90;2.83;;;16.40;99.90;;;;;;5040409;28;20075;-77
2023/08/16 01:21:05;;;;;;;7.60;3.42;;;16.40;99.90;;;;;;5035992;28;20038;-77
2023/08/16 01:23:43;;;;;;;5.70;3.10;;;16.40;99.90;;;;;;5046953;28;20135;-77
2023/08/16 01:26:32;;;;;;;6.18;3.25;;;16.40;99.90;;;;;;5040087;28;20381;-77
2023/08/16 01:29:00;;;;;;;4.15;2.70;;;16.30;99.90;;;;;;5041586;28;20486;-77
2023/08/16 01:31:26;;;;;;;5.55;2.75;;;16.20;99.90;;;;;;5042746;28;20571;-77
2023/08/16 01:33:52;;;;;;;7.60;2.90;;;16.20;99.90;;;;;;5039464;28;20053;-77
2023/08/16 01:36:18;;;;;;;5.57;2.97;;;16.20;99.90;;;;;;5050696;28;20059;-77
2023/08/16 01:38:45;;;;;;;4.88;3.00;;;16.10;99.90;;;;;;5043017;28;20033;-77
2023/08/16 01:41:21;;;;;;;6.13;3.33;;;16.10;99.90;;;;;;5049137;28;20068;-77
2023/08/16 01:43:48;;;;;;;4.47;3.17;;;16.10;99.90;;;;;;5064123;28;20048;-77
2023/08/16 01:46:15;;;;;;;6.07;3.47;;;16.00;99.90;;;;;;5046433;28;20045;-77
2023/08/16 01:48:42;;;;;;;;;;;16.10;99.90;;;;;;5049423;28;20041;-77
2023/08/16 01:51:07;;;;;;;5.00;3.13;;;16.00;99.90;;;;;;5049775;28;19921;-77
2023/08/16 01:53:36;;;;;;;6.72;3.70;;;16.00;99.90;;;;;;5045059;28;20041;-78
2023/08/16 01:56:02;;;;;;;7.90;4.47;;;16.00;99.90;;;;;;5061401;28;20053;-78
2023/08/16 01:58:28;;;;;;;7.25;4.40;;;15.90;99.90;;;;;;5044230;28;20057;-77
2023/08/16 02:00:54;;;;;;;6.65;4.32;;;15.90;99.90;;;;;;5046961;28;20051;-78
2023/08/16 02:03:20;;;;;;;7.30;3.85;;;15.90;99.90;;;;;;5047862;28;20049;-78
2023/08/16 02:05:45;;;;;;;4.57;3.58;;;15.90;99.90;;;;;;5049422;28;20120;-78
2023/08/16 02:08:12;;;;;;;7.85;3.53;;;15.90;99.90;;;;;;5038598;28;20183;-78
2023/08/16 02:10:38;;;;;;;7.25;4.10;;;15.80;99.90;;;;;;5065656;28;20052;-77
2023/08/16 02:13:04;;;;;;;6.38;3.70;;;15.90;99.90;;;;;;5033967;28;20041;-78
2023/08/16 02:15:29;;;;;;;5.95;4.20;;;15.80;99.90;;;;;;5046574;28;20484;-78
2023/08/16 02:17:55;;;;;;;6.25;4.35;;;15.80;99.90;;;;;;5042820;28;20041;-78
2023/08/16 02:20:21;;;;;;;5.60;4.25;;;15.70;99.90;;;;;;5047080;28;20464;-77
2023/08/16 02:22:47;;;;;;;6.78;4.30;;;15.70;99.90;;;;;;5048019;28;20037;-78
2023/08/16 02:25:12;;;;;;;6.97;4.85;;;15.70;99.90;;;;;;5047028;28;20442;-78
2023/08/16 02:27:39;;;;;;;5.80;4.35;;;15.70;99.90;;;;;;5052425;28;20041;-77
2023/08/16 02:30:05;;;;;;;6.73;4.23;;;15.60;99.90;;;;;;5047135;28;20044;-78
2023/08/16 02:32:33;;;;;;;6.25;5.00;;;15.60;99.90;;;;;;5044144;28;20061;-78
2023/08/16 02:34:59;;;;;;;;;;;15.60;99.90;;;;;;5044458;28;20080;-77
2023/08/16 02:37:26;;;;;;;6.00;4.60;;;15.60;99.90;;;;;;5046293;28;19920;-78
2023/08/16 02:39:52;;;;;;;7.45;4.40;;;15.50;99.90;;;;;;5038754;28;20120;-78
2023/08/16 02:42:17;;;;;;;6.68;4.25;;;15.50;99.90;;;;;;5043969;28;20124;-77
2023/08/16 02:44:44;;;;;;;7.68;4.15;;;15.50;99.90;;;;;;5038142;28;20374;-76
2023/08/16 02:47:10;;;;;;;6.22;4.57;;;15.50;99.90;;;;;;5044163;28;20061;-76
2023/08/16 02:49:36;;;;;;;7.00;4.93;;;15.50;99.90;;;;;;5039514;28;20029;-76
2023/08/16 02:52:01;;;;;;;9.95;5.05;;;15.50;99.90;;;;;;5046444;28;20045;-75
2023/08/16 02:54:27;;;;;;;7.53;5.10;;;15.50;99.90;;;;;;5045975;28;20045;-76
2023/08/16 02:56:53;;;;;;;8.15;4.78;;;15.50;99.90;;;;;;5045588;28;20037;-76
2023/08/16 02:59:20;;;;;;;5.93;5.03;;;15.50;99.90;;;;;;5044485;28;20446;-76
2023/08/16 03:01:46;;;;;;;7.78;5.05;;;15.50;99.90;;;;;;5044885;28;20912;-76
2023/08/16 03:04:11;;;;;;;7.40;4.53;;;15.50;99.90;;;;;;5048220;28;20044;-76
2023/08/16 03:06:37;;;;;;;7.18;4.20;;;15.40;99.90;;;;;;5048061;28;20040;-76
2023/08/16 03:09:03;;;;;;;7.25;4.80;;;15.40;99.90;;;;;;5041433;28;20037;-76
2023/08/16 03:11:29;;;;;;;7.72;4.43;;;15.30;99.90;;;;;;5049582;28;20045;-76
2023/08/16 03:13:54;;;;;;;5.75;4.63;;;15.30;99.90;;;;;;5043384;28;20053;-76
2023/08/16 03:16:20;;;;;;;7.35;4.90;;;15.30;99.90;;;;;;5046888;28;20136;-76
2023/08/16 03:18:46;;;;;;;7.53;5.40;;;15.20;99.90;;;;;;5040027;28;20036;-76
2023/08/16 03:21:11;;;;;;;9.88;5.28;;;15.20;99.90;;;;;;5050069;28;20118;-76
2023/08/16 03:23:37;;;;;;;7.85;5.22;;;15.30;99.90;;;;;;5054890;28;20041;-76
2023/08/16 03:26:03;;;;;;;9.05;5.50;;;15.30;99.90;;;;;;5057037;28;20045;-76
2023/08/16 03:28:28;;;;;;;6.90;5.15;;;15.20;99.90;;;;;;5060978;28;20115;-76
2023/08/16 03:30:54;;;;;;;7.78;5.70;;;15.20;99.90;;;;;;5045810;28;20055;-76
2023/08/16 03:33:20;;;;;;;7.43;5.78;;;15.20;99.90;;;;;;5047458;28;20131;-76
2023/08/16 03:35:45;;;;;;;5.55;4.85;;;15.20;99.90;;;;;;5063094;28;20053;-76
2023/08/16 03:38:11;;;;;;;7.95;4.53;;;15.20;99.90;;;;;;5036486;28;21170;-76
2023/08/16 03:40:37;;;;;;;6.22;4.53;;;15.20;99.90;;;;;;5048778;28;20041;-76
2023/08/16 03:43:02;;;;;;;6.32;4.50;;;15.20;99.90;;;;;;5039478;28;20048;-76
2023/08/16 03:45:28;;;;;;;9.00;5.00;;;15.10;99.90;;;;;;5041261;28;20090;-76
2023/08/16 03:47:56;;;;;;;6.45;5.05;;;15.10;99.90;;;;;;5040427;28;20077;-76
2023/08/16 03:50:22;;;;;;;8.82;5.35;;;15.10;99.90;;;;;;5045667;28;20067;-76
2023/08/16 03:52:48;;;;;;;7.28;5.00;;;15.10;99.90;;;;;;5045216;28;20032;-76
2023/08/16 03:55:14;;;;;;;8.93;6.28;;;15.10;99.90;;;;;;5029984;28;20130;-76
2023/08/16 03:57:40;;;;;;;11.13;6.45;;;15.10;99.90;;;;;;5047160;28;20075;-76
2023/08/16 04:00:11;;;;;;;8.70;6.50;;;15.10;99.90;;;;;;5048142;28;20902;-76
2023/08/16 04:02:38;;;;;;;9.75;6.53;;;15.20;99.90;;;;;;5040880;28;20059;-76
2023/08/16 04:05:08;;;;;;;8.05;5.72;;;15.20;99.90;;;;;;5043595;28;20037;-76
2023/08/16 04:07:34;;;;;;;5.90;5.10;;;15.20;99.90;;;;;;5054638;28;20119;-76
2023/08/16 04:10:00;;;;;;;6.97;5.18;;;15.20;99.90;;;;;;5048140;28;20047;-76
2023/08/16 04:12:25;;;;;;;8.48;5.15;;;15.10;99.90;;;;;;5044272;28;20549;-76
2023/08/16 04:14:51;;;;;;;7.95;5.22;;;15.10;99.90;;;;;;5049421;28;20064;-76
2023/08/16 04:17:17;;;;;;;6.13;5.53;;;15.10;99.90;;;;;;5045682;28;20573;-76
2023/08/16 04:19:43;;;;;;;9.75;5.97;;;15.10;99.90;;;;;;5045663;28;20557;-76
2023/08/16 04:22:08;;;;;;;9.70;6.20;;;15.10;99.90;;;;;;5043533;28;20045;-76
2023/08/16 04:24:34;;;;;;;8.88;6.60;;;15.10;99.90;;;;;;5043790;28;20079;-76
2023/08/16 04:27:00;;;;;;;9.77;6.55;;;15.10;99.90;;;;;;5036648;28;20053;-76
2023/08/16 04:29:26;;;;;;;7.47;6.35;;;15.10;99.90;;;;;;5044715;28;20381;-76
2023/08/16 04:31:51;;;;;;;7.32;5.38;;;15.10;99.90;;;;;;5043104;28;20037;-76
2023/08/16 04:34:17;;;;;;;8.18;5.65;;;15.10;99.90;;;;;;5035662;28;20064;-76
2023/08/16 04:36:43;;;;;;;8.20;6.25;;;15.00;99.90;;;;;;5046364;28;20049;-76
2023/08/16 04:39:08;;;;;;;9.43;6.82;;;15.00;99.90;;;;;;5046217;28;20052;-76
2023/08/16 04:41:34;;;;;;;8.52;6.82;;;15.00;99.90;;;;;;5038096;28;20041;-75
2023/08/16 04:44:00;;;;;;;10.82;7.00;;;15.00;99.90;;;;;;5040769;28;20077;-76
2023/08/16 04:46:25;;;;;;;10.38;7.82;;;15.10;99.90;;;;;;5043976;28;20112;-76
2023/08/16 04:48:52;;;;;;;12.43;8.52;;;15.10;99.90;;;;;;5040809;28;20038;-76
2023/08/16 04:51:18;;;;;;;13.00;8.50;;;15.20;99.90;;;;;;5058116;28;20079;-76
2023/08/16 04:53:45;;;;;;;12.43;9.48;;;15.30;99.90;;;;;;5041984;28;20037;-76
2023/08/16 04:56:11;;;;;;;11.30;9.00;;;15.30;99.90;;;;;;5038469;28;20491;-76
2023/08/16 04:58:36;;;;;;;11.85;9.05;;;15.40;99.90;;;;;;5056295;28;20067;-76
2023/08/16 05:01:02;;;;;;;11.15;9.07;;;15.40;99.90;;;;;;5047549;28;20098;-75
2023/08/16 05:03:30;;;;;;;11.85;9.73;;;15.40;99.90;;;;;;5034709;28;20054;-76
2023/08/16 05:06:00;;;;;;;14.07;9.45;;;15.50;99.90;;;;;;5037587;28;20037;-76
2023/08/16 05:08:25;;;;;;;11.35;9.80;;;15.50;99.90;;;;;;5039492;28;20514;-76
2023/08/16 05:10:51;;;;;;;11.65;9.77;;;15.60;99.90;;;;;;5060404;28;20045;-76
2023/08/16 05:13:17;;;;;;;10.43;8.85;;;15.70;99.90;;;;;;5046789;28;20060;-76
2023/08/16 05:15:44;;;;;;;12.27;8.87;;;15.70;99.90;;;;;;5044428;28;20064;-76
2023/08/16 05:18:11;;;;;;;10.00;8.98;;;15.70;99.90;;;;;;5041695;28;20520;-76
2023/08/16 05:20:37;;;;;;;11.65;8.65;;;15.80;99.90;;;;;;5036173;28;20128;-76
2023/08/16 05:23:03;;;;;;;12.88;9.35;;;15.90;99.90;;;;;;5049704;28;20033;-76
2023/08/16 05:25:29;;;;;;;11.82;9.48;;;15.90;99.90;;;;;;5037222;28;20055;-76
2023/08/16 05:27:58;;;;;;;12.43;9.52;;;16.00;99.90;;;;;;5050793;28;20131;-75
2023/08/16 05:30:25;;;;;;;12.90;8.73;;;16.10;99.90;;;;;;5063909;28;20686;-74
2023/08/16 05:32:54;;;;;;;12.50;9.07;;;16.20;99.90;;;;;;5035915;28;20516;-79
2023/08/16 05:35:19;;;;;;;12.25;9.25;;;16.20;99.90;;;;;;5047901;28;20079;-79
2023/08/16 05:37:45;;;;;;;12.15;9.77;;;16.30;99.90;;;;;;5037483;28;20076;-79
2023/08/16 05:40:11;;;;;;;12.30;9.65;;;16.40;99.90;;;;;;5057182;28;20083;-79
2023/08/16 05:42:38;;;;;;;11.35;8.63;;;16.40;99.90;;;;;;5037814;28;20187;-79
2023/08/16 05:45:05;;;;;;;12.20;9.23;;;16.50;99.90;;;;;;5038818;28;20049;-79
2023/08/16 05:47:31;;;;;;;12.25;9.93;;;16.60;99.90;;;;;;5041786;28;20052;-77
2023/08/16 05:49:58;;;;;;;11.93;8.88;;;16.70;99.90;;;;;;5033531;28;20380;-78
2023/08/16 05:52:24;;;;;;;13.85;10.38;;;16.70;99.90;;;;;;5042755;28;20041;-77
2023/08/16 05:54:50;;;;;;;14.15;9.68;;;16.70;99.90;;;;;;5042989;28;20122;-78
2023/08/16 05:57:16;;;;;;;13.65;10.00;;;16.70;99.90;;;;;;5044469;28;20048;-79
2023/08/16 05:59:41;;;;;;;11.75;9.75;;;16.70;99.90;;;;;;5038128;28;20099;-78
2023/08/16 06:02:07;;;;;;;12.00;9.65;;;16.70;99.90;;;;;;5038701;28;20464;-78
2023/08/16 06:04:36;;;;;;;11.85;9.15;;;16.60;99.90;;;;;;5039937;28;20051;-78
2023/08/16 06:07:03;;;;;;;12.20;10.13;;;16.60;99.90;;;;;;5040840;28;20343;-78
2023/08/16 06:09:30;;;;;;;13.77;9.15;;;16.60;99.90;;;;;;5036002;28;20064;-78
2023/08/16 06:11:56;;;;;;;11.55;8.98;;;16.60;99.90;;;;;;5041802;28;20037;-78
2023/08/16 06:14:22;;;;;;;12.57;9.15;;;16.60;99.90;;;;;;5037540;28;20043;-78
2023/08/16 06:16:47;;;;;;;13.98;9.98;;;16.70;99.90;;;;;;5045289;28;20039;-79
2023/08/16 06:19:14;;;;;;;14.63;9.70;;;16.80;99.90;;;;;;5039888;28;20037;-78
2023/08/16 06:21:40;;;;;;;10.50;9.35;;;16.90;99.90;;;;;;5059466;28;20484;-78
2023/08/16 06:24:08;;;;;;;11.40;9.30;;;16.90;99.90;;;;;;5036721;28;20115;-78
2023/08/16 06:26:34;;;;;;;10.40;9.05;;;17.10;99.90;;;;;;5037257;28;20486;-79
2023/08/16 06:29:00;;;;;;;11.30;8.20;;;17.20;99.90;;;;;;5041360;28;20044;-77
2023/08/16 06:31:26;;;;;;;11.50;8.52;;;17.30;99.90;;;;;;5054650;28;20044;-78
2023/08/16 06:33:51;;;;;;;13.60;8.93;;;17.40;99.90;;;;;;5042334;28;20365;-78
2023/08/16 06:36:17;;;;;;;12.30;8.20;;;17.40;99.90;;;;;;5055433;28;20055;-78
2023/08/16 06:38:43;;;;;;;9.25;7.95;;;17.50;99.90;;;;;;5033149;28;20049;-78
2023/08/16 06:41:09;;;;;;;11.52;8.75;;;17.60;99.90;;;;;;5039386;28;20037;-78
2023/08/16 06:43:35;;;;;;;11.70;8.57;;;17.60;99.90;;;;;;5032061;28;20546;-76
2023/08/16 06:46:01;;;;;;;13.90;8.65;;;17.60;99.90;;;;;;5035034;28;20076;-82
2023/08/16 06:48:27;;;;;;;12.07;8.35;;;17.70;99.90;;;;;;5046026;28;20499;-81
2023/08/16 06:50:54;;;;;;;9.02;7.05;;;17.70;99.90;;;;;;5051962;28;20060;-78
2023/08/16 06:53:20;;;;;;;;;;;17.80;99.90;;;;;;5050335;28;20045;-81
2023/08/16 06:55:46;;;;;;;11.68;6.95;;;17.80;99.90;;;;;;5061975;28;19924;-84
2023/08/16 06:58:11;;;;;;;10.95;7.55;;;17.80;99.90;;;;;;5047032;28;20080;-88
2023/08/16 07:00:41;;;;;;;10.35;6.57;;;17.90;99.90;;;;;;5051268;28;20036;-90
2023/08/16 07:03:07;;;;;;;8.25;7.30;;;17.90;99.90;;;;;;5045720;28;20183;-85
2023/08/16 07:05:33;;;;;;;9.80;6.90;;;17.90;99.90;;;;;;5042368;28;20045;-90
2023/08/16 07:07:59;;;;;;;9.20;7.05;;;18.00;99.90;;;;;;5048533;28;20138;-79
2023/08/16 07:10:24;;;;;;;10.02;7.65;;;18.10;99.90;;;;;;5048406;28;20045;-81
2023/08/16 07:12:50;;;;;;;12.30;7.80;;;18.10;99.90;;;;;;5040062;28;20033;-83
2023/08/16 07:15:16;;;;;;;11.27;8.55;;;18.10;99.90;;;;;;5045692;28;20045;-74
2023/08/16 07:17:42;;;;;;;9.52;8.18;;;18.10;99.90;;;;;;5049388;28;20503;-73
2023/08/16 07:20:08;;;;;;;13.13;9.32;;;18.10;99.90;;;;;;5043529;28;20072;-79
2023/08/16 07:22:39;;;;;;;13.75;8.38;;;18.10;99.90;;;;;;5046529;28;20049;-77
2023/08/16 07:25:07;;;;;;;12.00;8.75;;;18.10;99.90;;;;;;5049653;28;20037;-78
2023/08/16 07:27:33;;;;;;;11.55;8.45;;;18.20;99.90;;;;;;5048280;28;20041;-79
2023/08/16 07:29:59;;;;;;;9.80;8.32;;;18.20;99.90;;;;;;5041149;28;20044;-78
2023/08/16 07:32:25;;;;;;;11.38;8.98;;;18.20;99.90;;;;;;5050362;28;20048;-75
2023/08/16 07:34:51;;;;;;;10.40;8.85;;;18.30;99.90;;;;;;5049834;28;20044;-78
2023/08/16 07:37:18;;;;;;;13.13;9.00;;;18.30;99.90;;;;;;5045557;28;20127;-80
2023/08/16 07:39:44;;;;;;;12.35;9.98;;;18.40;99.90;;;;;;5048609;28;20522;-80
2023/08/16 07:42:10;;;;;;;14.15;9.70;;;18.40;99.90;;;;;;5051217;28;20045;-79
2023/08/16 07:44:36;;;;;;;12.10;9.27;;;18.50;99.90;;;;;;5048670;28;20540;-78
2023/08/16 07:47:02;;;;;;;12.35;9.10;;;18.50;99.90;;;;;;5048193;28;20052;-80
2023/08/16 07:49:29;;;;;;;10.10;9.07;;;18.60;99.90;;;;;;5047274;28;20037;-76
2023/08/16 07:51:56;;;;;;;12.00;9.52;;;18.70;99.90;;;;;;5038831;28;20037;-79
2023/08/16 07:54:22;;;;;;;12.35;9.32;;;18.70;99.90;;;;;;5046536;28;20064;-75
2023/08/16 07:56:48;;;;;;;12.50;9.55;;;18.80;99.90;;;;;;5042123;28;20048;-74
2023/08/16 07:59:13;;;;;;;12.52;8.95;;;18.80;99.90;;;;;;5034424;28;20053;-80
2023/08/16 08:01:43;;;;;;;13.38;9.80;;;18.80;99.90;;;;;;5036525;28;20152;-83
2023/08/16 08:04:09;;;;;;;12.02;10.45;;;18.80;99.90;;;;;;5045274;28;20118;-88
2023/08/16 08:06:36;;;;;;;12.52;9.82;;;18.80;99.90;;;;;;5049422;28;20056;-87
2023/08/16 08:09:03;;;;;;;11.70;9.95;;;18.80;99.90;;;;;;5050034;28;20687;-87
2023/08/16 08:11:28;;;;;;;14.15;10.75;;;18.90;99.90;;;;;;5046489;28;20045;-77
2023/08/16 08:13:54;;;;;;;12.90;10.20;;;18.90;99.90;;;;;;5049110;28;20043;-86
2023/08/16 08:16:20;;;;;;;9.50;8.35;;;18.90;99.90;;;;;;5050755;28;20041;-83
2023/08/16 08:18:46;;;;;;;12.57;8.40;;;19.00;99.90;;;;;;5044499;28;20100;-85
2023/08/16 08:21:12;;;;;;;10.00;7.25;;;19.10;99.90;;;;;;5046241;28;20045;-77
2023/08/16 08:23:38;;;;;;;8.95;7.05;;;19.20;99.90;;;;;;5048189;28;20033;-75
2023/08/16 08:26:03;;;;;;;10.30;6.68;;;19.30;99.90;;;;;;5047127;28;20492;-75
2023/08/16 08:28:29;;;;;;;9.38;7.00;;;19.30;99.90;;;;;;5048357;28;20119;-75
2023/08/16 08:30:55;;;;;;;8.73;5.50;;;19.40;99.90;;;;;;5049364;28;20516;-75
2023/08/16 08:33:21;;;;;;;8.02;4.28;;;19.40;99.90;;;;;;5049102;28;20044;-75
2023/08/16 08:35:48;;;;;;;10.90;5.25;;;19.40;99.90;;;;;;5042828;28;20037;-75
2023/08/16 08:38:14;;;;;;;;;;;19.50;99.90;;;;;;5046249;28;20130;-75
2023/08/16 08:40:40;;;;;;;7.53;5.40;;;19.50;99.90;;;;;;5047991;28;20435;-75
2023/08/16 08:43:07;;;;;;;7.67;5.40;;;19.50;99.90;;;;;;5041908;28;20053;-75
2023/08/16 08:45:35;;;;;;;9.50;5.72;;;19.60;99.90;;;;;;5046126;28;20064;-75
2023/08/16 08:48:01;;;;;;;8.75;5.07;;;19.60;99.90;;;;;;5042633;28;20389;-75
2023/08/16 08:50:30;;;;;;;8.03;4.60;;;19.60;99.90;;;;;;5043151;28;20507;-75
2023/08/16 08:52:57;;;;;;;10.25;5.00;;;19.70;99.90;;;;;;5046417;28;20310;-75
2023/08/16 08:55:26;;;;;;;7.27;5.17;;;19.80;99.90;;;;;;5045726;28;20037;-76
2023/08/16 08:57:53;;;;;;;6.43;4.10;;;19.90;99.90;;;;;;5046944;28;20808;-78
2023/08/16 09:00:20;;;;;;;8.25;4.38;;;20.00;99.90;;;;;;5041747;28;20131;-77
2023/08/16 09:02:52;;;;;;;8.55;4.28;;;20.10;99.90;;;;;;5041381;28;20061;-76
2023/08/16 09:05:22;;;;;;;5.80;3.40;;;20.20;99.90;;;;;;5046468;28;20084;-72
2023/08/16 09:07:48;;;;;;;6.72;4.13;;;20.20;99.90;;;;;;5042370;28;20131;-74
2023/08/16 09:10:15;;;;;;;6.50;3.00;;;20.30;99.90;;;;;;5043432;28;20044;-77
2023/08/16 09:12:42;;;;;;;5.65;3.13;;;20.30;99.90;;;;;;5043023;28;21010;-77
2023/08/16 09:15:09;;;;;;;4.88;2.55;;;20.30;99.90;;;;;;5049012;28;20414;-75
2023/08/16 09:17:35;;;;;;;5.00;2.53;;;20.40;99.90;;;;;;5059248;28;20538;-79
2023/08/16 09:20:05;;;;;;;7.03;2.97;;;20.50;99.90;;;;;;5039396;28;20346;-75
2023/08/16 09:22:31;;;;;;;5.45;2.47;;;20.60;99.90;;;;;;5042808;28;20339;-68
2023/08/16 09:24:58;;;;;;;4.75;2.53;;;20.80;99.90;;;;;;5046348;28;20138;-77
2023/08/16 09:27:25;;;;;;;6.25;2.55;;;20.80;99.90;;;;;;5043621;28;20049;-80
2023/08/16 09:29:57;;;;;;;5.50;2.47;;;20.90;99.90;;;;;;5048524;28;20045;-76
2023/08/16 09:32:28;;;;;;;4.40;2.08;;;20.90;99.90;;;;;;5047133;28;20496;-74
2023/08/16 09:34:54;;;;;;;2.05;1.40;;;21.10;99.90;;;;;;5046475;28;20041;-81
2023/08/16 09:37:20;;;;;;;3.25;1.73;;;21.20;99.90;;;;;;5057289;28;20706;-79
2023/08/16 09:40:06;;;;;;;3.00;1.50;;;21.40;99.90;;;;;;5036398;28;20058;-75
2023/08/16 09:42:32;;;;;;;2.60;1.27;;;21.50;99.90;;;;;;5046051;28;20033;-81
2023/08/16 09:44:58;;;;;;;3.30;1.60;;;21.50;99.90;;;;;;5042803;28;20045;-81
2023/08/16 09:47:25;;;;;;;3.42;1.40;;;21.60;99.90;;;;;;5048357;28;20143;-83
2023/08/16 09:49:51;;;;;;;1.95;1.23;;;21.60;99.90;;;;;;5041109;28;20502;-84
2023/08/16 09:52:18;;;;;;;2.28;1.30;;;21.60;99.90;;;;;;5047893;28;20049;-78
2023/08/16 09:54:48;;;;;;;3.08;1.25;;;21.70;99.90;;;;;;5047149;28;20129;-81
2023/08/16 09:57:14;;;;;;;3.13;1.10;;;21.80;99.90;;;;;;5049586;28;20122;-82
2023/08/16 09:59:41;;;;;;;3.17;1.50;;;21.80;99.90;;;;;;5049729;28;20052;-79
2023/08/16 10:02:11;;;;;;;3.00;1.35;;;21.90;99.90;;;;;;5050498;28;20480;-83
2023/08/16 10:04:38;;;;;;;3.25;1.30;;;21.90;99.90;;;;;;5045733;28;20141;-79
2023/08/16 10:07:06;;;;;;;2.58;1.33;;;21.90;99.90;;;;;;5051605;28;20048;-77
2023/08/16 10:09:35;;;;;;;3.13;1.50;;;22.00;99.90;;;;;;5044523;28;20129;-79
2023/08/16 10:12:02;;;;;;;3.72;1.48;;;22.20;99.90;;;;;;5044481;28;20084;-78
2023/08/16 10:14:29;;;;;;;3.22;1.40;;;22.30;99.90;;;;;;5047858;28;20429;-80
2023/08/16 10:16:59;;;;;;;3.00;1.38;;;22.40;99.90;;;;;;5039683;28;20045;-80
2023/08/16 10:19:27;;;;;;;3.50;1.50;;;22.50;99.90;;;;;;5043809;28;20052;-79
2023/08/16 10:21:54;;;;;;;3.95;1.42;;;22.50;99.90;;;;;;5048334;28;20116;-77
2023/08/16 10:24:21;;;;;;;5.00;1.58;;;22.60;99.90;;;;;;5042984;28;20041;-76
2023/08/16 10:26:50;;;;;;;3.33;1.33;;;22.50;99.90;;;;;;5047378;28;20116;-77
2023/08/16 10:29:22;;;;;;;3.00;1.65;;;22.50;99.90;;;;;;5042365;28;20052;-77
2023/08/16 10:31:51;;;;;;;3.05;1.50;;;22.60;99.90;;;;;;5039592;28;20056;-78
2023/08/16 10:34:20;;;;;;;3.47;1.70;;;22.50;99.90;;;;;;5049919;28;20040;-81
2023/08/16 10:36:47;;;;;;;5.43;1.90;;;22.50;99.90;;;;;;5040777;28;20076;-77
2023/08/16 10:39:23;;;;;;;3.65;1.55;;;22.40;99.90;;;;;;5046237;28;20587;-79
2023/08/16 10:41:53;;;;;;;3.50;1.50;;;22.40;99.90;;;;;;5047435;28;20049;-82
2023/08/16 10:44:23;;;;;;;3.05;1.35;;;22.50;99.90;;;;;;5058113;28;20049;-83
2023/08/16 10:46:50;;;;;;;4.75;1.60;;;22.50;99.90;;;;;;5048266;28;20040;-87
2023/08/16 10:49:16;;;;;;;3.80;1.50;;;22.60;99.90;;;;;;5043334;28;20156;-82
2023/08/16 10:51:55;;;;;;;4.18;1.50;;;22.60;99.90;;;;;;5035831;28;20036;-72
2023/08/16 10:54:35;;;;;;;4.28;1.38;;;22.70;99.90;;;;;;5039805;28;20075;-75
2023/08/16 10:57:05;;;;;;;3.33;1.50;;;22.70;99.90;;;;;;5044651;28;20041;-75
2023/08/16 10:59:38;;;;;;;3.35;2.08;;;22.80;99.90;;;;;;5033145;28;20037;-74
2023/08/16 11:02:15;;;;;;;4.00;1.90;;;22.90;99.90;;;;;;5040910;28;20065;-74
2023/08/16 11:04:45;;;;;;;4.10;2.15;;;22.90;99.90;;;;;;5041710;28;20052;-74
2023/08/16 11:07:12;;;;;;;3.75;1.60;;;22.90;99.90;;;;;;5032088;28;20050;-73
2023/08/16 11:09:38;;;;;;;;;;;22.80;99.90;;;;;;5041412;28;20045;-74
2023/08/16 11:12:06;;;;;;;6.85;2.20;;;22.80;99.90;;;;;;5040892;28;20338;-75
2023/08/16 11:14:33;;;;;;;3.10;1.98;;;22.70;99.90;;;;;;5034218;28;20453;-73
2023/08/16 11:16:59;;;;;;;5.15;2.33;;;22.80;99.90;;;;;;5039037;28;20087;-73
2023/08/16 11:19:25;;;;;;;4.82;1.83;;;22.80;99.90;;;;;;5036060;28;20045;-73
2023/08/16 11:21:51;;;;;;;4.25;2.05;;;22.80;99.90;;;;;;5043247;28;20047;-74
2023/08/16 11:24:18;;;;;;;4.63;2.10;;;22.80;99.90;;;;;;5042451;28;20044;-72
2023/08/16 11:26:44;;;;;;;5.13;2.17;;;22.80;99.90;;;;;;5042108;28;20036;-74
2023/08/16 11:29:09;;;;;;;6.07;2.00;;;22.80;99.90;;;;;;5041821;28;22095;-74
2023/08/16 11:31:36;;;;;;;4.25;1.90;;;22.80;99.90;;;;;;5038028;28;20098;-73
2023/08/16 11:34:08;;;;;;;7.80;2.13;;;22.90;99.90;;;;;;5041083;28;20045;-73
2023/08/16 11:36:37;;;;;;;5.85;2.08;;;23.00;99.90;;;;;;5037129;28;20559;-72
2023/08/16 11:39:10;;;;;;;4.40;1.77;;;23.00;99.90;;;;;;5046673;28;20051;-73
2023/08/16 11:41:36;;;;;;;4.88;2.00;;;22.90;99.90;;;;;;5037857;28;20053;-73
2023/08/16 11:44:03;;;;;;;4.47;1.65;;;22.90;99.90;;;;;;5041021;28;20045;-74
2023/08/16 11:46:42;;;;;;;3.10;1.70;;;22.90;99.90;;;;;;5042458;28;20051;-73
2023/08/16 11:49:08;;;;;;;3.97;1.95;;;23.00;99.90;;;;;;5046520;28;20045;-74
2023/08/16 11:51:38;;;;;;;5.32;1.80;;;23.20;99.90;;;;;;5038247;28;20046;-74
2023/08/16 11:54:06;;;;;;;4.38;1.92;;;23.40;99.90;;;;;;5043584;28;20045;-74
2023/08/16 11:56:32;;;;;;;4.80;2.10;;;23.60;99.90;;;;;;5035680;28;20851;-74
2023/08/16 11:58:59;;;;;;;5.22;2.00;;;23.60;99.90;;;;;;5038904;28;20051;-74
2023/08/16 12:01:26;;;;;;;4.93;2.13;;;23.70;99.90;;;;;;5044935;28;20057;-75
2023/08/16 12:03:52;;;;;;;4.70;1.83;;;23.90;99.90;;;;;;5040109;28;20090;-76
2023/08/16 12:06:20;;;;;;;4.30;1.65;;;24.00;99.90;;;;;;5042131;28;20040;-76
2023/08/16 12:08:51;;;;;;;5.47;1.60;;;24.20;99.90;;;;;;5039512;28;20602;-76
2023/08/16 12:11:34;;;;;;;2.70;1.30;;;24.20;99.90;;;;;;5038620;28;20051;-76
2023/08/16 12:14:03;;;;;;;2.95;1.63;;;24.20;99.90;;;;;;5039246;28;20153;-75
2023/08/16 12:16:29;;;;;;;5.97;1.50;;;24.20;99.90;;;;;;5042527;28;20036;-75
2023/08/16 12:18:56;;;;;;;3.58;1.50;;;24.30;99.90;;;;;;5045818;28;20048;-74
2023/08/16 12:21:22;;;;;;;2.90;1.48;;;24.40;99.90;;;;;;5032894;28;20071;-75
2023/08/16 12:23:49;;;;;;;3.30;1.50;;;24.50;99.90;;;;;;5034795;28;20476;-74
2023/08/16 12:26:15;;;;;;;3.88;1.50;;;24.40;99.90;;;;;;5035873;28;21571;-74
2023/08/16 12:28:41;;;;;;;3.13;1.40;;;24.20;99.90;;;;;;5041079;28;20107;-74
2023/08/16 12:31:07;;;;;;;2.65;1.50;;;24.00;99.90;;;;;;5035852;28;20051;-76
2023/08/16 12:33:33;;;;;;;5.37;1.47;;;24.00;99.90;;;;;;5039615;28;20041;-74
2023/08/16 12:35:59;;;;;;;3.70;1.58;;;24.00;99.90;;;;;;5040715;28;20047;-74
2023/08/16 12:38:25;;;;;;;2.33;1.27;;;23.90;99.90;;;;;;5037302;28;20077;-74
2023/08/16 12:40:51;;;;;;;3.90;1.30;;;23.80;99.90;;;;;;5034005;28;20041;-74
2023/08/16 12:43:18;;;;;;;3.92;1.48;;;23.90;99.90;;;;;;5041766;28;20045;-74
2023/08/16 12:45:44;;;;;;;3.78;1.50;;;24.00;99.90;;;;;;5035605;28;20041;-75